• Join FlightAware (Why Join?)
  • Login
  • US Flag 
01:41PM EDT


 

Airport Tracker/Info


-or-


 

Live Flight TrackerFlight Track Log ✈ UAE757 ✈ 24-Apr-2013 ✈ OMDB / DXB - DAAG / ALG

Flight Track Log - Related Links

Times and Time Zones

All times are in EDT time to prevent confusion due to time zone crossing. See the UAE757 flight status page for this flight to view local times or setup timezone preferences in your user account.

Time Position Orientation Groundspeed Altitude Reporting Facility
EDT Latitude Longitude Course Direction KTS MPH feet Rate Location/Type
01:05AM 25.2680 55.3440 299° West 174 200 700  Level FlightAware
01:05AM 25.2720 55.3340 294° West 176 203 1,100 960 Climbing FlightAware
01:06AM 25.2890 55.3030 301° West 211 243 1,500 1,080 Climbing FlightAware
01:06AM 25.2990 55.2760 292° West 244 281 2,200 1,860 Climbing FlightAware
01:09AM 25.4084 55.0431 298° West  Level Estimated
01:10AM 25.4559 54.9417 297° West  Level Estimated
01:11AM 25.5033 54.8402 297° West  Level Estimated
01:12AM 25.5506 54.7387 297° West  Level Estimated
01:13AM 25.5979 54.6371 297° West  Level Estimated
01:14AM 25.6450 54.5354 297° West  Level Estimated
01:15AM 25.6921 54.4336 297° West  Level Estimated
01:16AM 25.7392 54.3317 297° West  Level Estimated
01:16AM 25.3360 54.5510 297° West 356 410 19,800  Level FlightAware
01:16AM 25.3510 54.4910 285° West 356 410 19,800  Level FlightAware
01:17AM 25.3650 54.4310 284° West 356 410 19,800  Level FlightAware
01:18AM 25.3800 54.3720 286° West 356 410 19,800  Level FlightAware
01:18AM 25.3980 54.2970 285° West 356 410 19,800  Level FlightAware
01:19AM 25.4120 54.2370 284° West 356 410 19,800 1,320 Level FlightAware
01:22AM 25.5289 53.9867 297° West  Level Estimated
01:23AM 25.5753 53.8869 297° West  Level Estimated
01:24AM 25.6217 53.7871 297° West  Level Estimated
01:25AM 25.6680 53.6871 297° West  Level Estimated
01:26AM 25.7142 53.5871 297° West  Level Estimated
01:27AM 25.7604 53.4870 297° West  Level Estimated
01:27AM 25.7320 53.1110 297° West 412 474 32,000  Level FlightAware
01:28AM 25.8065 53.3868 297° West  Level Estimated
01:29AM 25.7810 52.9640 290° West 405 466 32,000  Level FlightAware
01:30AM 25.7960 52.8620 279° West 405 466 32,000  Level FlightAware
01:30AM 25.8090 52.7700 279° West 405 466 32,000  Level FlightAware
01:31AM 25.8180 52.7080 279° West 405 466 32,000  Level FlightAware
01:32AM 25.8330 52.6050 279° West 404 465 32,000  Level FlightAware
01:32AM 25.8440 52.5290 279° West 404 465 32,000  Level FlightAware
01:33AM 25.8700 52.4320 287° West 407 468 32,000  Level FlightAware
01:34AM 25.9010 52.3510 293° West 405 466 32,000  Level FlightAware
01:34AM 25.9260 52.2850 293° West 405 466 32,000  Level FlightAware
01:35AM 25.9510 52.2200 293° West 405 466 32,000  Level FlightAware
01:36AM 25.9760 52.1550 293° West 405 466 32,000  Level FlightAware
01:37AM 26.0070 52.0730 293° West 405 466 32,000  Level FlightAware
01:37AM 26.0960 51.9590 311° West 409 471 32,000  Level FlightAware
01:38AM 26.1240 51.9000 298° West 408 470 32,000  Level FlightAware
01:39AM 26.1710 51.8010 298° West 405 466 32,000  Level FlightAware
01:39AM 26.2060 51.7270 298° West 409 471 32,000  Level FlightAware
01:40AM 26.2430 51.6430 296° West 407 468 32,000  Level FlightAware
01:41AM 26.2770 51.5660 296° West 405 466 32,000  Level FlightAware
01:42AM 26.3160 51.4820 297° West 407 468 32,000  Level FlightAware
01:42AM 26.3500 51.4050 296° West 408 470 32,000  Level FlightAware
01:43AM 26.3790 51.3370 295° West 405 466 32,000  Level FlightAware
01:44AM 26.4140 51.2510 294° West 410 472 32,000  Level FlightAware
01:44AM 26.4440 51.1740 294° West 408 470 32,000  Level FlightAware
01:45AM 26.4780 51.0910 295° West 407 468 32,000  Level FlightAware
01:46AM 26.5250 50.9740 294° West 407 468 32,000  Level FlightAware
01:47AM 26.5490 50.9110 293° West 407 468 32,000  Level FlightAware
01:47AM 26.5790 50.8220 291° West 408 470 32,000  Level FlightAware
01:48AM 26.6000 50.7550 289° West 408 470 32,000  Level FlightAware
01:49AM 26.6390 50.6490 292° West 32,000  Level FlightAware
01:51AM 26.7340 50.3670 291° West 414 476 32,000  Level FlightAware
01:52AM 26.7550 50.2940 288° West 414 476 32,000  Level FlightAware
01:52AM 26.7750 50.2250 288° West 414 476 32,000  Level FlightAware
01:53AM 26.7530 50.1370 254° West 411 473 32,000  Level FlightAware
01:54AM 26.7520 50.0510 269° West 411 473 32,000  Level FlightAware
01:54AM 26.7510 49.9780 269° West 411 473 32,000  Level FlightAware
01:55AM 26.7490 49.9060 268° West 411 473 32,000  Level FlightAware
01:56AM 26.7480 49.8340 269° West 411 473 32,000  Level FlightAware
01:56AM 26.7470 49.7430 269° West 411 473 32,000  Level FlightAware
01:57AM 26.7460 49.6710 269° West 411 473 32,000  Level FlightAware
01:58AM 26.7450 49.5980 269° West 411 473 32,000  Level FlightAware
01:58AM 26.7440 49.5260 269° West 411 473 32,000  Level FlightAware
01:59AM 26.7420 49.4530 268° West 411 473 32,000  Level FlightAware
02:00AM 26.7410 49.3630 269° West 411 473 32,000  Level FlightAware
02:01AM 26.7400 49.2910 269° West 411 473 32,000  Level FlightAware
02:01AM 26.7390 49.2180 269° West 411 473 32,000  Level FlightAware
02:02AM 26.7380 49.1460 269° West 411 473 32,000  Level FlightAware
02:03AM 26.7120 48.8890 264° West 32,000  Level FlightAware
02:03AM 26.7080 48.7920 267° West 410 472 32,000  Level FlightAware
02:04AM 26.7050 48.7010 268° West 411 473 32,000  Level FlightAware
02:05AM 26.7010 48.6160 267° West 412 474 32,000  Level FlightAware
02:06AM 26.6980 48.5200 268° West 413 475 32,000  Level FlightAware
02:06AM 26.6940 48.4380 267° West 413 475 32,000  Level FlightAware
02:07AM 26.6900 48.3390 267° West 414 476 32,000  Level FlightAware
02:08AM 26.6870 48.2530 268° West 413 475 32,000  Level FlightAware
02:08AM 26.6830 48.1680 267° West 413 475 32,000  Level FlightAware
02:09AM 26.6790 48.0720 267° West 413 475 32,000  Level FlightAware
02:10AM 26.6760 47.9970 267° West 414 476 32,000  Level FlightAware
02:11AM 26.6920 47.8410 277° West 414 476 32,000  Level FlightAware
02:12AM 26.7020 47.7690 279° West 414 476 32,000  Level FlightAware
02:12AM 26.7120 47.6970 279° West 414 476 32,000  Level FlightAware
02:13AM 26.7230 47.6250 280° West 414 476 32,000  Level FlightAware
02:14AM 26.7350 47.5350 279° West 414 476 32,000  Level FlightAware
02:14AM 26.7640 47.3930 283° West 413 475 32,000  Level FlightAware
02:15AM 26.7790 47.3000 280° West 413 475 32,000  Level FlightAware
02:16AM 26.7920 47.2150 280° West 414 476 32,000  Level FlightAware
02:16AM 26.8050 47.1300 280° West 415 478 32,000  Level FlightAware
02:17AM 26.8200 47.0340 280° West 415 478 32,000  Level FlightAware
02:18AM 26.8330 46.9500 280° West 414 476 32,000  Level FlightAware
02:19AM 26.8460 46.8650 280° West 415 478 32,000  Level FlightAware
02:19AM 26.8600 46.7690 279° West 413 475 32,000  Level FlightAware
02:20AM 26.8730 46.6870 280° West 414 476 32,000  Level FlightAware
02:21AM 26.8870 46.5900 279° West 412 474 32,000  Level FlightAware
02:21AM 26.9000 46.5060 280° West 412 474 32,000  Level FlightAware
02:22AM 26.9120 46.4210 279° West 413 475 32,000  Level FlightAware
02:23AM 26.9260 46.3270 280° West 415 478 32,000  Level FlightAware
02:23AM 26.9390 46.2420 280° West 414 476 32,000  Level FlightAware
02:24AM 26.9510 46.1570 279° West 414 476 32,000  Level FlightAware
02:25AM 26.9650 46.0620 279° West 416 479 32,000  Level FlightAware
02:26AM 26.9780 45.9770 280° West 416 479 32,000  Level FlightAware
02:26AM 26.9910 45.8820 279° West 415 478 32,000  Level FlightAware
02:27AM 27.0040 45.7960 280° West 414 476 32,000  Level FlightAware
02:28AM 27.0170 45.7010 279° West 412 474 32,000  Level FlightAware
02:28AM 27.0290 45.6180 279° West 411 473 32,000  Level FlightAware
02:29AM 27.0450 45.5090 279° West 412 474 32,000  Level FlightAware
02:30AM 27.0580 45.4190 279° West 410 472 32,000  Level FlightAware
02:31AM 27.0680 45.3220 277° West 411 473 32,000  Level FlightAware
02:32AM 27.0790 45.2120 276° West 411 473 32,000  Level FlightAware
02:32AM 27.0860 45.1400 276° West 411 473 32,000  Level FlightAware
02:33AM 27.0930 45.0680 276° West 411 473 32,000  Level FlightAware
02:34AM 27.1000 44.9960 276° West 411 473 32,000  Level FlightAware
02:34AM 27.1080 44.9050 276° West 411 473 32,000  Level FlightAware
02:35AM 27.1150 44.8330 276° West 411 473 32,000  Level FlightAware
02:36AM 27.1220 44.7610 276° West 411 473 32,000  Level FlightAware
02:36AM 27.1280 44.6890 275° West 411 473 32,000  Level FlightAware
02:37AM 27.1350 44.6160 276° West 411 473 32,000  Level FlightAware
02:38AM 27.1430 44.5260 276° West 411 473 32,000  Level FlightAware
02:39AM 27.1500 44.4540 276° West 411 473 32,000  Level FlightAware
02:39AM 27.1570 44.3820 276° West 411 473 32,000  Level FlightAware
02:40AM 27.1640 44.3090 276° West 411 473 32,000  Level FlightAware
02:41AM 27.1700 44.2370 275° West 411 473 32,000  Level FlightAware
02:43AM 27.2531 44.0439 296° West  Level Estimated
02:44AM 27.2972 43.9413 296° West  Level Estimated
02:45AM 27.3411 43.8386 296° West  Level Estimated
02:46AM 27.3850 43.7358 296° West  Level Estimated
02:47AM 27.4288 43.6329 296° West  Level Estimated
02:48AM 27.4726 43.5299 296° West  Level Estimated
02:49AM 27.5162 43.4269 296° West  Level Estimated
02:50AM 27.5598 43.3237 296° West  Level Estimated
02:51AM 27.6033 43.2205 295° West  Level Estimated
02:52AM 27.6467 43.1172 295° West  Level Estimated
02:53AM 27.6901 43.0139 295° West  Level Estimated
02:54AM 27.7334 42.9104 295° West  Level Estimated
02:55AM 27.7766 42.8069 295° West  Level Estimated
02:56AM 27.8197 42.7032 295° West  Level Estimated
02:57AM 27.8627 42.5995 295° West  Level Estimated
02:58AM 27.9057 42.4957 295° West  Level Estimated
02:59AM 27.9486 42.3919 295° West  Level Estimated
03:00AM 27.9914 42.2879 295° West  Level Estimated
03:01AM 28.0341 42.1839 295° West  Level Estimated
03:02AM 28.0768 42.0798 295° West  Level Estimated
03:03AM 28.1194 41.9756 295° West  Level Estimated
03:04AM 28.1619 41.8713 295° West  Level Estimated
03:05AM 28.2043 41.7669 295° West  Level Estimated
03:06AM 28.2467 41.6625 295° West  Level Estimated
03:07AM 28.2889 41.5579 295° West  Level Estimated
03:08AM 28.3311 41.4533 295° West  Level Estimated
03:09AM 28.3732 41.3486 295° West  Level Estimated
03:10AM 28.4152 41.2439 295° West  Level Estimated
03:11AM 28.4571 41.1390 294° West  Level Estimated
03:12AM 28.4990 41.0340 294° West  Level Estimated
03:13AM 28.5418 40.9264 294° West  Level Estimated
03:14AM 28.5846 40.8186 294° West  Level Estimated
03:15AM 28.6272 40.7108 294° West  Level Estimated
03:16AM 28.6698 40.6029 294° West  Level Estimated
03:17AM 28.7123 40.4949 294° West  Level Estimated
03:18AM 28.7547 40.3868 294° West  Level Estimated
03:19AM 28.7970 40.2786 294° West  Level Estimated
03:20AM 28.8392 40.1703 294° West  Level Estimated
03:21AM 28.8814 40.0620 294° West  Level Estimated
03:22AM 28.9234 39.9535 294° West  Level Estimated
03:23AM 28.9654 39.8450 294° West  Level Estimated
03:24AM 29.0073 39.7363 294° West  Level Estimated
03:25AM 29.0490 39.6276 294° West  Level Estimated
03:26AM 29.0907 39.5188 294° West  Level Estimated
03:27AM 29.1324 39.4099 294° West  Level Estimated
03:28AM 29.1739 39.3009 294° West  Level Estimated
03:29AM 29.2153 39.1919 294° West  Level Estimated
03:30AM 29.2567 39.0827 293° West  Level Estimated
03:31AM 29.2980 38.9735 293° West  Level Estimated
03:32AM 29.3391 38.8642 293° West  Level Estimated
03:33AM 29.3802 38.7547 293° West  Level Estimated
03:34AM 29.4212 38.6452 293° West  Level Estimated
03:34AM 29.0980 37.4620 293° West 408 470 32,000  Level FlightAware
03:35AM 29.4621 38.5356 293° West  Level Estimated
03:35AM 29.0960 37.3650 269° West 408 470 32,000  Level FlightAware
03:36AM 29.0950 37.2890 269° West 407 468 32,000  Level FlightAware
03:37AM 29.0930 37.1640 269° West 407 468 32,000  Level FlightAware
03:37AM 29.0900 37.0910 267° West 407 468 32,000  Level FlightAware
03:38AM 29.0880 37.0180 268° West 407 468 32,000  Level FlightAware
03:39AM 29.0850 36.9260 268° West 407 468 32,000  Level FlightAware
03:40AM 29.0830 36.8530 268° West 407 468 32,000  Level FlightAware
03:40AM 29.0810 36.7800 268° West 407 468 32,000  Level FlightAware
03:41AM 29.0790 36.7070 268° West 407 468 32,000  Level FlightAware
03:42AM 29.0760 36.6330 267° West 407 468 32,000  Level FlightAware
03:42AM 29.0740 36.5420 269° West 407 468 32,000  Level FlightAware
03:43AM 29.0710 36.4690 267° West 407 468 32,000  Level FlightAware
03:44AM 29.0690 36.3960 268° West 407 468 32,000  Level FlightAware
03:44AM 29.0670 36.3220 268° West 407 468 32,000  Level FlightAware
03:45AM 29.0650 36.2490 268° West 407 468 32,000  Level FlightAware
03:46AM 29.0620 36.1580 268° West 407 468 32,000 60 Level FlightAware
03:48AM 29.1312 35.9808 294° West  Level Estimated
03:49AM 29.1735 35.8722 294° West  Level Estimated
03:50AM 29.2157 35.7635 294° West  Level Estimated
03:51AM 29.2578 35.6547 294° West  Level Estimated
03:52AM 29.2998 35.5459 294° West  Level Estimated
03:53AM 29.3417 35.4369 294° West  Level Estimated
03:54AM 29.3836 35.3279 294° West  Level Estimated
03:55AM 29.4253 35.2187 294° West  Level Estimated
03:56AM 29.4669 35.1095 294° West  Level Estimated
03:57AM 29.5085 35.0002 294° West  Level Estimated
03:58AM 29.5500 34.8908 294° West  Level Estimated
03:59AM 29.5914 34.7813 294° West  Level Estimated
04:00AM 29.6327 34.6717 293° West  Level Estimated
04:01AM 29.6739 34.5620 293° West  Level Estimated
04:02AM 29.7150 34.4522 293° West  Level Estimated
04:03AM 29.7561 34.3424 293° West  Level Estimated
04:04AM 29.7970 34.2324 293° West  Level Estimated
04:05AM 29.8378 34.1224 293° West  Level Estimated
04:06AM 29.8786 34.0122 293° West  Level Estimated
04:07AM 29.9192 33.9020 293° West  Level Estimated
04:08AM 29.9598 33.7917 293° West  Level Estimated
04:09AM 30.0003 33.6813 293° West  Level Estimated
04:10AM 30.0407 33.5708 293° West  Level Estimated
04:11AM 30.0810 33.4602 293° West  Level Estimated
04:12AM 30.1212 33.3496 293° West  Level Estimated
04:13AM 30.1613 33.2388 293° West  Level Estimated
04:14AM 30.2013 33.1280 293° West  Level Estimated
04:15AM 30.2412 33.0170 293° West  Level Estimated
04:16AM 30.2810 32.9060 293° West  Level Estimated
04:17AM 30.3208 32.7949 293° West  Level Estimated
04:18AM 30.3604 32.6837 292° West  Level Estimated
04:19AM 30.4000 32.5724 292° West  Level Estimated
04:20AM 30.4394 32.4610 292° West  Level Estimated
04:21AM 30.4788 32.3495 292° West  Level Estimated
04:22AM 30.5180 32.2379 292° West  Level Estimated
04:23AM 30.5572 32.1263 292° West  Level Estimated
04:24AM 30.5963 32.0145 292° West  Level Estimated
04:25AM 30.6352 31.9027 292° West  Level Estimated
04:26AM 30.6741 31.7907 292° West  Level Estimated
04:27AM 30.7129 31.6787 292° West  Level Estimated
04:28AM 30.7516 31.5666 292° West  Level Estimated
04:29AM 30.7902 31.4544 292° West  Level Estimated
04:30AM 30.8287 31.3421 292° West  Level Estimated
04:31AM 30.8671 31.2297 292° West  Level Estimated
04:32AM 30.9054 31.1173 292° West  Level Estimated
04:33AM 30.9436 31.0047 292° West  Level Estimated
04:34AM 30.9817 30.8921 292° West  Level Estimated
04:35AM 31.0197 30.7793 291° West  Level Estimated
04:36AM 31.0576 30.6665 291° West  Level Estimated
04:37AM 31.0954 30.5536 291° West  Level Estimated
04:38AM 31.1331 30.4406 291° West  Level Estimated
04:39AM 31.1707 30.3275 291° West  Level Estimated
04:40AM 31.2082 30.2143 291° West  Level Estimated
04:41AM 31.2457 30.1010 291° West  Level Estimated
04:42AM 31.2830 29.9877 291° West  Level Estimated
04:43AM 31.3202 29.8742 291° West  Level Estimated
04:44AM 31.3573 29.7607 291° West  Level Estimated
04:45AM 31.3943 29.6470 291° West  Level Estimated
04:46AM 31.4313 29.5333 291° West  Level Estimated
04:47AM 31.4681 29.4195 291° West  Level Estimated
04:48AM 31.5048 29.3056 291° West  Level Estimated
04:49AM 31.5414 29.1916 291° West  Level Estimated
04:50AM 31.5779 29.0775 291° West  Level Estimated
04:51AM 31.6143 28.9634 291° West  Level Estimated
04:52AM 31.6506 28.8491 290° West  Level Estimated
04:53AM 31.6868 28.7348 290° West  Level Estimated
04:54AM 31.7230 28.6203 290° West  Level Estimated
04:55AM 31.7590 28.5058 290° West  Level Estimated
04:56AM 31.7949 28.3912 290° West  Level Estimated
04:57AM 31.8307 28.2765 290° West  Level Estimated
04:58AM 31.8664 28.1617 290° West  Level Estimated
04:59AM 31.9020 28.0468 290° West  Level Estimated
05:00AM 31.9374 27.9318 290° West  Level Estimated
05:01AM 31.9728 27.8168 290° West  Level Estimated
05:02AM 32.0081 27.7016 290° West  Level Estimated
05:03AM 32.0433 27.5864 290° West  Level Estimated
05:04AM 32.0784 27.4711 290° West  Level Estimated
05:05AM 32.1133 27.3557 290° West  Level Estimated
05:06AM 32.1482 27.2402 290° West  Level Estimated
05:07AM 32.1829 27.1246 290° West  Level Estimated
05:08AM 32.2176 27.0089 290° West  Level Estimated
05:09AM 32.2522 26.8931 289° West  Level Estimated
05:10AM 32.2866 26.7773 289° West  Level Estimated
05:11AM 32.3209 26.6613 289° West  Level Estimated
05:12AM 32.3552 26.5453 289° West  Level Estimated
05:13AM 32.3893 26.4292 289° West  Level Estimated
05:14AM 32.4233 26.3130 289° West  Level Estimated
05:15AM 32.4572 26.1967 289° West  Level Estimated
05:16AM 32.4910 26.0803 289° West  Level Estimated
05:17AM 32.5247 25.9638 289° West  Level Estimated
05:18AM 32.5583 25.8473 289° West  Level Estimated
05:19AM 32.5918 25.7306 289° West  Level Estimated
05:20AM 32.6251 25.6139 289° West  Level Estimated
05:21AM 32.6584 25.4971 289° West  Level Estimated
05:22AM 32.6916 25.3802 289° West  Level Estimated
05:23AM 32.7246 25.2632 289° West  Level Estimated
05:23AM 33.9560 25.2300 289° West 412 474 40,000  Level FlightAware
05:24AM 32.7576 25.1461 289° West  Level Estimated
05:24AM 33.9910 25.1630 302° West 405 466 40,000  Level FlightAware
05:25AM 34.0270 25.0600 293° West 398 458 40,000  Level FlightAware
05:26AM 34.0520 24.9760 290° West 395 455 40,000  Level FlightAware
05:26AM 34.0750 24.9020 291° West 395 455 40,000  Level FlightAware
05:27AM 34.1050 24.8000 290° West 397 457 40,000  Level FlightAware
05:28AM 34.1290 24.7210 290° West 397 457 40,000  Level FlightAware
05:28AM 34.1570 24.6240 289° West 396 456 40,000  Level FlightAware
05:29AM 34.1820 24.5410 290° West 396 456 40,000  Level FlightAware
05:30AM 34.2070 24.4560 290° West 397 457 40,000  Level FlightAware
05:30AM 34.2350 24.3610 290° West 397 457 40,000  Level FlightAware
05:31AM 34.2600 24.2770 290° West 397 457 40,000  Level FlightAware
05:32AM 34.2870 24.1820 289° West 396 456 40,000  Level FlightAware
05:33AM 34.3120 24.1000 290° West 394 453 40,000  Level FlightAware
05:33AM 34.3360 24.0150 289° West 394 453 40,000  Level FlightAware
05:34AM 34.3550 23.9470 289° West 394 453 40,000  Level FlightAware
05:35AM 34.3760 23.8760 290° West 394 453 40,000 -120 Level FlightAware
05:37AM 34.4245 23.6356 284° West  Level Estimated
05:38AM 34.4490 23.5132 284° West  Level Estimated
05:39AM 34.4733 23.3908 284° West  Level Estimated
05:40AM 34.4976 23.2683 284° West  Level Estimated
05:41AM 34.5217 23.1457 283° West  Level Estimated
05:42AM 34.5457 23.0231 283° West  Level Estimated
05:43AM 34.5696 22.9001 283° West  Level Estimated
05:44AM 34.5934 22.7770 283° West  Level Estimated
05:45AM 34.6170 22.6539 283° West  Level Estimated
05:46AM 34.6406 22.5307 283° West  Level Estimated
05:47AM 34.6640 22.4074 283° West  Level Estimated
05:48AM 34.6873 22.2841 283° West  Level Estimated
05:49AM 34.7105 22.1607 283° West  Level Estimated
05:50AM 34.7335 22.0372 283° West  Level Estimated
05:51AM 34.7565 21.9137 283° West  Level Estimated
05:52AM 34.7793 21.7900 283° West  Level Estimated
05:53AM 34.8019 21.6663 283° West  Level Estimated
05:54AM 34.8245 21.5426 283° West  Level Estimated
05:55AM 34.8469 21.4188 282° West  Level Estimated
05:56AM 34.8692 21.2949 282° West  Level Estimated
05:57AM 34.8914 21.1709 282° West  Level Estimated
05:58AM 34.9134 21.0469 282° West  Level Estimated
05:59AM 34.9353 20.9228 282° West  Level Estimated
06:00AM 34.9571 20.7987 282° West  Level Estimated
06:01AM 34.9788 20.6745 282° West  Level Estimated
06:02AM 35.0004 20.5502 282° West  Level Estimated
06:03AM 35.0218 20.4258 282° West  Level Estimated
06:04AM 35.0431 20.3014 282° West  Level Estimated
06:05AM 35.0642 20.1769 282° West  Level Estimated
06:05AM 35.2380 20.0830 282° West 400 460 38,000  Level FlightAware
06:05AM 35.2540 19.9950 283° West 400 460 38,000  Level FlightAware
06:06AM 35.0853 20.0524 282° West  Level Estimated
06:06AM 35.2780 19.8800 284° West 402 463 38,000  Level FlightAware
06:07AM 35.2960 19.7930 284° West 399 459 38,000  Level FlightAware
06:07AM 35.3110 19.7140 283° West 400 460 38,000  Level FlightAware
06:08AM 35.3300 19.6070 282° West 400 460 38,000  Level FlightAware
06:09AM 35.3430 19.5310 282° West 400 460 38,000  Level FlightAware
06:10AM 35.3560 19.4560 282° West 400 460 38,000  Level FlightAware
06:10AM 35.3690 19.3800 282° West 400 460 38,000  Level FlightAware
06:11AM 35.3820 19.3050 282° West 400 460 38,000  Level FlightAware
06:12AM 35.3980 19.2110 282° West 400 460 38,000  Level FlightAware
06:12AM 35.4410 19.0420 287° West 38,000  Level FlightAware
06:13AM 35.4550 18.9670 283° West 403 464 38,000  Level FlightAware
06:14AM 35.4690 18.8910 283° West 403 464 38,000  Level FlightAware
06:14AM 35.4910 18.7780 283° West 406 467 38,000  Level FlightAware
06:15AM 35.5110 18.6700 283° West 407 468 38,000  Level FlightAware
06:16AM 35.5300 18.5710 283° West 406 467 38,000  Level FlightAware
06:17AM 35.5470 18.4790 283° West 407 468 38,000  Level FlightAware
06:17AM 35.5650 18.3790 283° West 409 471 38,000  Level FlightAware
06:18AM 35.5800 18.2990 283° West 410 472 38,000  Level FlightAware
06:19AM 35.6000 18.1920 283° West 410 472 38,000  Level FlightAware
06:19AM 35.6180 18.0940 283° West 410 472 38,000  Level FlightAware
06:20AM 35.6330 18.0080 282° West 412 474 38,000  Level FlightAware
06:21AM 35.6530 17.8990 283° West 414 476 38,000  Level FlightAware
06:22AM 35.6690 17.8090 282° West 416 479 38,000  Level FlightAware
06:22AM 35.6840 17.7240 282° West 415 478 38,000  Level FlightAware
06:23AM 35.7040 17.6110 282° West 415 478 38,000  Level FlightAware
06:24AM 35.7200 17.5210 282° West 414 476 38,000  Level FlightAware
06:24AM 35.7390 17.4160 283° West 417 480 38,000  Level FlightAware
06:25AM 35.7530 17.3330 282° West 418 481 38,000  Level FlightAware
06:26AM 35.7730 17.2180 282° West 420 483 38,000  Level FlightAware
06:26AM 35.7890 17.1250 282° West 421 484 38,000  Level FlightAware
06:27AM 35.8050 17.0330 282° West 420 483 38,000  Level FlightAware
06:28AM 35.8210 16.9400 282° West 418 481 38,000  Level FlightAware
06:29AM 35.8390 16.8330 282° West 417 480 38,000  Level FlightAware
06:29AM 35.8570 16.7310 282° West 417 480 38,000  Level FlightAware
06:30AM 35.8720 16.6430 282° West 418 481 38,000  Level FlightAware
06:31AM 35.8890 16.5420 282° West 419 482 38,000  Level FlightAware
06:31AM 35.9060 16.4370 281° West 419 482 38,000  Level FlightAware
06:32AM 35.9220 16.3440 282° West 420 483 38,000  Level FlightAware
06:33AM 35.9370 16.2500 281° West 422 486 38,000  Level FlightAware
06:33AM 35.9530 16.1550 282° West 424 488 38,000  Level FlightAware
06:34AM 35.9700 16.0480 281° West 424 488 38,000  Level FlightAware
06:35AM 35.9870 15.9440 281° West 426 490 38,000  Level FlightAware
06:36AM 36.0030 15.8460 281° West 425 489 38,000  Level FlightAware
06:36AM 36.0200 15.7410 281° West 423 487 38,000  Level FlightAware
06:37AM 36.0350 15.6470 281° West 424 488 38,000  Level FlightAware
06:38AM 36.0500 15.5510 281° West 426 490 38,000  Level FlightAware
06:38AM 36.0670 15.4450 281° West 429 494 38,000  Level FlightAware
06:39AM 36.0820 15.3500 281° West 426 490 38,000  Level FlightAware
06:40AM 36.0970 15.2550 281° West 423 487 38,000  Level FlightAware
06:40AM 36.1140 15.1460 281° West 424 488 38,000  Level FlightAware
06:41AM 36.1290 15.0500 281° West 424 488 38,000  Level FlightAware
06:42AM 36.1450 14.9440 281° West 424 488 38,000  Level FlightAware
06:43AM 36.1600 14.8460 281° West 426 490 38,000  Level FlightAware
06:43AM 36.1740 14.7510 280° West 427 491 38,000  Level FlightAware
06:44AM 36.1910 14.6430 281° West 427 491 38,000  Level FlightAware
06:45AM 36.2030 14.5620 280° West 428 493 38,000  Level FlightAware
06:45AM 36.2200 14.4490 281° West 430 495 38,000  Level FlightAware
06:46AM 36.2350 14.3450 280° West 431 496 38,000  Level FlightAware
06:47AM 36.2510 14.2350 280° West 431 496 38,000  Level FlightAware
06:47AM 36.2660 14.1360 281° West 431 496 38,000  Level FlightAware
06:48AM 36.2800 14.0400 280° West 430 495 38,000  Level FlightAware
06:49AM 36.2940 13.9440 280° West 430 495 38,000  Level FlightAware
06:50AM 36.3090 13.8380 280° West 430 495 38,000  Level FlightAware
06:50AM 36.3250 13.7240 280° West 430 495 38,000  Level FlightAware
06:51AM 36.3390 13.6300 281° West 433 498 38,000  Level FlightAware
06:52AM 36.3530 13.5290 280° West 435 501 38,000  Level FlightAware
06:52AM 36.3660 13.4360 280° West 436 502 38,000  Level FlightAware
06:53AM 36.3820 13.3200 280° West 437 503 38,000  Level FlightAware
06:54AM 36.3980 13.2080 280° West 437 503 38,000  Level FlightAware
06:54AM 36.4110 13.1110 279° West 443 510 38,000  Level FlightAware
06:55AM 36.4260 13.0010 280° West 443 510 38,000  Level FlightAware
06:56AM 36.4400 12.8990 280° West 442 509 38,000  Level FlightAware
06:57AM 36.4540 12.7970 280° West 440 506 38,000  Level FlightAware
06:57AM 36.4690 12.6850 279° West 440 506 38,000  Level FlightAware
06:58AM 36.4820 12.5850 279° West 441 507 38,000  Level FlightAware
06:59AM 36.4950 12.4840 279° West 442 509 38,000  Level FlightAware
06:59AM 36.5100 12.3730 280° West 441 507 38,000  Level FlightAware
07:00AM 36.5220 12.2800 279° West 435 501 38,000  Level FlightAware
07:01AM 36.5390 12.1500 279° West 433 498 38,000  Level FlightAware
07:02AM 36.5650 12.0570 289° West 455 524 38,000  Level FlightAware
07:02AM 36.6160 11.9530 301° West 465 535 38,000  Level FlightAware
07:03AM 36.6600 11.8650 302° West 465 535 38,000  Level FlightAware
07:04AM 36.7010 11.7710 299° West 454 522 38,000  Level FlightAware
07:04AM 36.7150 11.6540 279° West 449 517 38,000  Level FlightAware
07:05AM 36.7250 11.5520 277° West 455 524 38,000  Level FlightAware
07:06AM 36.7370 11.4360 277° West 461 531 38,000  Level FlightAware
07:06AM 36.7480 11.3280 277° West 467 537 38,000 -180 Level FlightAware
07:07AM 36.7590 11.2100 277° West 462 532 37,800 -480 Descending FlightAware
07:08AM 36.7700 11.1040 277° West 461 531 37,400 -720 Descending FlightAware
07:09AM 36.7800 11.0020 277° West 469 540 36,900 -900 Descending FlightAware
07:09AM 36.7920 10.8720 277° West 468 539 36,200 -660 Descending FlightAware
07:10AM 36.8020 10.7670 277° West 459 528 36,000 -180 Descending FlightAware
07:11AM 36.8140 10.6450 277° West 460 529 36,000  Level FlightAware
07:11AM 36.8230 10.5410 276° West 456 525 36,000  Level FlightAware
07:12AM 36.8330 10.4350 277° West 456 525 36,000  Level FlightAware
07:13AM 36.8430 10.3220 276° West 455 524 36,000  Level FlightAware
07:13AM 36.8510 10.2190 276° West 449 517 36,000  Level FlightAware
07:14AM 36.8500 10.1150 269° West 448 516 36,000  Level FlightAware
07:15AM 36.8480 9.9970 269° West 447 514 36,000  Level FlightAware
07:16AM 36.8460 9.8840 269° West 444 511 36,000  Level FlightAware
07:17AM 36.8420 9.6520 269° West 438 504 36,000  Level FlightAware
07:18AM 36.8410 9.5740 269° West 441 507 36,000  Level FlightAware
07:18AM 36.8390 9.4750 269° West 442 509 36,000  Level FlightAware
07:19AM 36.8370 9.3840 268° West 443 510 36,000  Level FlightAware
07:20AM 36.8370 9.2580 270° West 437 503 36,000 -240 Level FlightAware
07:21AM 36.8370 9.1410 270° West 444 511 35,700 -780 Descending FlightAware
07:21AM 36.8370 9.0430 270° West 440 506 34,900 -1,080 Descending FlightAware
07:22AM 36.8360 8.9380 269° West 446 513 34,300 -720 Descending FlightAware
07:22AM 36.8360 8.8490 270° West 438 504 34,000 -300 Descending FlightAware
07:23AM 36.8350 8.7600 269° West 434 499 34,000  Level FlightAware
07:24AM 36.8340 8.6560 269° West 434 499 34,000  Level FlightAware
07:24AM 36.8330 8.5700 269° West 434 499 34,000  Level FlightAware
07:25AM 36.8310 8.4850 268° West 434 499 34,000  Level FlightAware
07:26AM 36.8300 8.4000 269° West 434 499 34,000  Level FlightAware
07:26AM 36.8290 8.3150 269° West 434 499 34,000  Level FlightAware
07:27AM 36.8280 8.2290 269° West 434 499 34,000  Level FlightAware
07:28AM 36.8260 8.1230 269° West 434 499 34,000  Level FlightAware
07:29AM 36.8250 8.0370 269° West 434 499 34,000  Level FlightAware
07:29AM 36.8240 7.9520 269° West 434 499 34,000  Level FlightAware
07:30AM 36.8230 7.8670 269° West 434 499 34,000  Level FlightAware
07:31AM 36.8210 7.7600 269° West 434 499 34,000  Level FlightAware
07:31AM 36.8200 7.6750 269° West 434 499 34,000  Level FlightAware
07:32AM 36.8190 7.5900 269° West 434 499 34,000  Level FlightAware
07:33AM 36.8180 7.5050 269° West 434 499 34,000  Level FlightAware
07:35AM 36.8152 7.2834 269° West  Level Estimated
07:36AM 36.8134 7.1543 269° West  Level Estimated
07:37AM 36.8115 7.0252 269° West  Level Estimated
07:38AM 36.8094 6.8961 269° West  Level Estimated
07:39AM 36.8071 6.7670 269° West  Level Estimated
07:40AM 36.8048 6.6379 269° West  Level Estimated
07:41AM 36.8023 6.5089 269° West  Level Estimated
07:42AM 36.7996 6.3798 269° West  Level Estimated
07:43AM 36.7968 6.2508 268° West  Level Estimated
07:44AM 36.7939 6.1218 268° West  Level Estimated
07:45AM 36.7909 5.9928 268° West  Level Estimated
07:46AM 36.7877 5.8637 268° West  Level Estimated
07:47AM 36.7843 5.7347 268° West  Level Estimated
07:48AM 36.7808 5.6058 268° West  Level Estimated
07:49AM 36.7772 5.4768 268° West  Level Estimated
07:50AM 36.7734 5.3478 268° West  Level Estimated
07:51AM 36.7696 5.2189 268° West  Level Estimated
07:52AM 36.7655 5.0899 268° West  Level Estimated
07:53AM 36.7613 4.9610 268° West  Level Estimated
07:54AM 36.7570 4.8321 268° West  Level Estimated
07:55AM 36.7525 4.7032 268° West  Level Estimated
07:56AM 36.7480 4.5743 267° West  Level Estimated
07:57AM 36.7432 4.4454 267° West  Level Estimated
07:58AM 36.7384 4.3166 267° West  Level Estimated
07:59AM 36.7333 4.1878 267° West  Level Estimated
08:00AM 36.7282 4.0590 267° West  Level Estimated
08:01AM 36.7229 3.9302 267° West  Level Estimated
08:02AM 36.7175 3.8014 267° West  Level Estimated
08:03AM 36.7119 3.6726 267° West  Level Estimated
08:04AM 36.7062 3.5439 267° West  Level Estimated
08:05AM 36.7004 3.4152 267° West  Level Estimated
08:06AM 36.6944 3.2865 267° West  Level Estimated
08:07AM 36.6910 3.2154 267° West  Level Estimated
08:08AM 36.6910 3.2154 338° Northwest  Level Estimated
08:09AM 36.6910 3.2154 338° Northwest  Level Estimated
08:10AM 36.6910 3.2154 338° Northwest  Level Estimated
08:11AM 36.6910 3.2154 338° Northwest  Level Estimated
08:12AM 36.6910 3.2154 338° Northwest  Level Estimated
08:13AM 36.6910 3.2154 338° Northwest  Level Estimated
08:14AM 36.6910 3.2154 338° Northwest  Level Estimated
08:15AM 36.6910 3.2154 338° Northwest  Level Estimated
08:16AM 36.6910 3.2154 338° Northwest  Level Estimated
08:17AM 36.6910 3.2154 338° Northwest  Level Estimated
08:18AM 36.6910 3.2154 338° Northwest  Level Estimated
08:19AM 36.6910 3.2154 338° Northwest  Level Estimated
08:20AM 36.6910 3.2154 338° Northwest  Level Estimated
08:21AM 36.6910 3.2154 338° Northwest  Level Estimated
08:22AM 36.6910 3.2154 338° Northwest  Level Estimated